Time;durP1;ratioP1;P1;durP2;ratioP2;P2;SDS_P1;SDS_P2;PMS_P1;PMS_P2;Temp;Humidity;BMP_temperature;BMP_pressure;BME280_temperature;BME280_humidity;BME280_pressure;Samples;Min_cycle;Max_cycle;Signal;HPM_P1;HPM_P2
2022/12/14 00:01:09;;;;;;;15.35;10.05;;;15.50;71.90;;;17.62;37.95;98364.03;5021167;28;20110;-73
2022/12/14 00:03:36;;;;;;;15.45;7.97;;;15.50;72.00;;;17.58;37.61;98366.66;5036975;28;20048;-73
2022/12/14 00:06:29;;;;;;;13.02;8.48;;;15.50;72.10;;;17.61;37.73;98362.44;5036657;28;20044;-73
2022/12/14 00:08:58;;;;;;;16.75;8.52;;;15.40;71.60;;;17.61;37.85;98358.91;5032755;28;20041;-73
2022/12/14 00:11:24;;;;;;;13.38;8.27;;;15.40;72.10;;;17.58;37.71;98365.84;5022099;28;20040;-72
2022/12/14 00:13:56;;;;;;;14.45;8.32;;;15.40;72.20;;;17.57;38.07;98354.06;5044517;28;20040;-74
2022/12/14 00:16:23;;;;;;;14.50;9.55;;;15.50;72.00;;;17.58;37.68;98360.38;5034887;28;20522;-73
2022/12/14 00:18:51;;;;;;;17.00;9.52;;;15.40;71.80;;;17.56;37.76;98357.94;5036987;28;20076;-73
2022/12/14 00:21:17;;;;;;;11.48;8.20;;;15.40;71.80;;;17.60;37.34;98351.78;5001669;28;20052;-73
2022/12/14 00:23:44;;;;;;;13.05;8.55;;;15.40;71.60;;;17.59;37.61;98351.00;5018801;28;20036;-73
2022/12/14 00:26:18;;;;;;;16.80;9.65;;;15.30;72.00;;;17.58;37.79;98350.19;5037918;28;20036;-73
2022/12/14 00:28:45;;;;;;;15.40;9.40;;;15.20;72.50;;;17.54;38.09;98348.44;5020622;28;20048;-73
2022/12/14 00:31:11;;;;;;;15.50;9.27;;;15.30;72.20;;;17.55;37.64;98350.84;5020843;28;20048;-72
2022/12/14 00:33:37;;;;;;;18.35;9.15;;;15.30;71.80;;;17.46;37.99;98347.34;5056230;28;20044;-72
2022/12/14 00:36:05;;;;;;;14.73;9.00;;;15.30;72.20;;;17.48;37.81;98345.09;5053987;28;20063;-72
2022/12/14 00:38:31;;;;;;;12.13;8.68;;;15.30;72.00;;;17.56;37.89;98355.19;5057018;28;20053;-71
2022/12/14 00:40:57;;;;;;;11.82;8.07;;;15.30;71.80;;;17.54;37.66;98357.47;5018840;28;20047;-71
2022/12/14 00:43:23;;;;;;;15.45;8.70;;;15.30;71.90;;;17.49;37.93;98354.91;5043861;28;20173;-72
2022/12/14 00:45:50;;;;;;;19.67;9.38;;;15.20;72.00;;;17.42;37.96;98354.59;5035800;28;20041;-72
2022/12/14 00:48:17;;;;;;;15.07;9.00;;;15.20;72.10;;;17.46;37.90;98358.31;5018417;28;20037;-72
2022/12/14 00:50:44;;;;;;;15.68;10.40;;;15.30;72.20;;;17.48;37.63;98350.56;5046496;28;20072;-72
2022/12/14 00:53:10;;;;;;;22.15;10.40;;;15.20;71.90;;;17.48;37.66;98350.56;5041101;28;20040;-71
2022/12/14 00:55:38;;;;;;;14.95;10.10;;;15.20;71.90;;;17.53;37.54;98352.31;5058487;28;20086;-72
2022/12/14 00:58:05;;;;;;;19.95;9.48;;;15.20;72.10;;;17.50;37.78;98348.31;5055027;28;20476;-72
2022/12/14 01:00:31;;;;;;;19.08;10.50;;;15.20;72.00;;;17.52;37.78;98342.47;5055031;28;20507;-72
2022/12/14 01:02:57;;;;;;;20.27;9.75;;;15.20;71.90;;;17.42;37.78;98340.91;5023134;28;20043;-72
2022/12/14 01:05:23;;;;;;;19.52;9.82;;;15.20;72.10;;;17.41;37.57;98344.78;5071226;28;20072;-72
2022/12/14 01:07:49;;;;;;;19.58;10.35;;;15.10;72.10;;;17.47;37.81;98343.47;5057414;28;20040;-72
2022/12/14 01:10:15;;;;;;;18.92;10.85;;;15.20;72.20;;;17.49;37.72;98345.88;5067864;28;20036;-73
2022/12/14 01:12:42;;;;;;;18.88;10.75;;;15.20;71.80;;;17.46;37.89;98343.81;5058175;28;20039;-72
2022/12/14 01:15:08;;;;;;;14.27;9.57;;;15.20;72.80;;;17.56;37.45;98338.75;5057813;28;20048;-72
2022/12/14 01:17:34;;;;;;;16.58;10.23;;;15.10;72.20;;;17.50;37.66;98336.50;5039888;28;20036;-71
2022/12/14 01:20:00;;;;;;;18.50;10.07;;;15.00;72.40;;;17.47;37.51;98342.66;5043687;28;20052;-71
2022/12/14 01:22:26;;;;;;;17.75;10.73;;;15.00;72.20;;;17.54;37.52;98337.47;5070867;28;20036;-71
2022/12/14 01:24:52;;;;;;;17.90;9.95;;;15.10;72.30;;;17.51;37.71;98338.13;5056870;28;20093;-71
2022/12/14 01:27:18;;;;;;;15.77;10.10;;;15.10;72.20;;;17.52;37.71;98340.53;5072562;28;20041;-71
2022/12/14 01:29:44;;;;;;;17.70;9.98;;;15.10;72.20;;;17.54;37.37;98327.28;5064297;28;20063;-71
2022/12/14 01:32:11;;;;;;;21.20;11.20;;;15.10;72.30;;;17.60;37.68;98329.84;5059989;28;20036;-72
2022/12/14 01:34:37;;;;;;;19.73;11.30;;;15.00;72.40;;;17.56;37.58;98329.72;5009158;28;20052;-71
2022/12/14 01:37:03;;;;;;;16.35;10.55;;;15.00;72.40;;;17.57;37.55;98323.09;5037367;28;20036;-71
2022/12/14 01:39:29;;;;;;;21.92;11.32;;;15.00;72.40;;;17.57;37.57;98314.84;5041866;28;20052;-71
2022/12/14 01:41:55;;;;;;;19.58;11.13;;;15.20;71.90;;;17.58;37.51;98322.75;5042166;28;20033;-71
2022/12/14 01:44:21;;;;;;;18.73;11.10;;;15.10;71.90;;;17.58;37.44;98322.75;5029847;28;20090;-71
2022/12/14 01:47:00;;;;;;;19.80;10.93;;;15.10;72.00;;;17.63;37.34;98309.97;5047847;28;20388;-71
2022/12/14 01:49:50;;;;;;;20.38;11.00;;;15.10;72.40;;;17.65;37.48;98308.50;5019981;28;20062;-71
2022/12/14 01:52:29;;;;;;;21.15;10.60;;;15.10;72.20;;;17.68;37.38;98312.53;5056901;28;20032;-71
2022/12/14 01:55:30;;;;;;;21.70;11.90;;;15.10;72.20;;;17.69;37.32;98314.16;5044950;28;20040;-72
2022/12/14 01:58:15;;;;;;;18.90;11.77;;;15.10;72.00;;;17.66;37.24;98301.13;5060426;28;20043;-71
2022/12/14 02:00:42;;;;;;;17.25;11.57;;;15.10;72.00;;;17.67;37.42;98313.69;5027836;28;20119;-71
2022/12/14 02:03:21;;;;;;;17.33;10.80;;;15.10;72.00;;;17.75;37.28;98310.06;5042318;28;20593;-71
2022/12/14 02:05:58;;;;;;;20.70;11.60;;;15.10;72.10;;;17.79;37.19;98311.84;5026635;28;20067;-71
2022/12/14 02:08:24;;;;;;;18.20;11.43;;;15.10;72.10;;;17.73;37.03;98307.69;5027167;28;20037;-72
2022/12/14 02:10:50;;;;;;;25.08;12.15;;;15.10;72.30;;;17.80;36.91;98296.19;5012580;28;20047;-72
2022/12/14 02:13:20;;;;;;;19.73;11.90;;;15.10;71.90;;;17.73;36.93;98304.09;5042953;28;20036;-72
2022/12/14 02:15:46;;;;;;;20.02;11.10;;;15.10;72.10;;;17.76;36.79;98301.53;5058379;28;20040;-72
2022/12/14 02:18:17;;;;;;;19.80;11.02;;;15.10;72.30;;;17.75;37.23;98297.16;5053599;28;20037;-72
2022/12/14 02:21:21;;;;;;;18.27;10.93;;;15.00;72.60;;;17.82;37.29;98293.91;5026919;28;20518;-72
2022/12/14 02:24:33;;;;;;;20.63;12.07;;;15.10;72.50;;;17.84;36.95;98296.34;5043298;28;20043;-72
2022/12/14 02:27:32;;;;;;;21.88;12.68;;;15.10;72.40;;;17.82;37.18;98298.59;5052935;28;20040;-72
2022/12/14 02:30:07;;;;;;;18.65;11.60;;;15.10;72.30;;;17.77;37.21;98305.06;5059326;28;20071;-72
2022/12/14 02:33:01;;;;;;;18.33;12.23;;;15.10;72.10;;;17.81;37.36;98306.03;5038219;28;20068;-72
2022/12/14 02:35:52;;;;;;;23.65;12.80;;;15.20;72.20;;;17.84;37.01;98299.88;5062808;28;20087;-72
2022/12/14 02:38:23;;;;;;;24.45;12.23;;;15.20;72.50;;;17.91;36.92;98291.09;5055779;28;20661;-71
2022/12/14 02:40:59;;;;;;;23.20;12.23;;;15.10;72.50;;;17.90;37.08;98286.75;5072430;28;20052;-72
2022/12/14 02:43:35;;;;;;;20.20;12.48;;;15.10;72.40;;;17.87;36.94;98288.22;5072037;28;20415;-72
2022/12/14 02:46:15;;;;;;;20.98;11.60;;;15.10;72.30;;;17.85;36.92;98297.94;5040753;28;20043;-72
2022/12/14 02:49:21;;;;;;;21.88;12.60;;;15.10;72.40;;;17.87;37.06;98285.50;5057271;28;20112;-72
2022/12/14 02:52:02;;;;;;;17.83;12.00;;;15.00;72.80;;;17.94;36.98;98287.72;5060905;28;20047;-71
2022/12/14 02:54:43;;;;;;;17.05;10.82;;;15.10;72.70;;;17.95;37.05;98281.06;5062990;28;20556;-71
2022/12/14 02:57:26;;;;;;;23.48;12.70;;;15.00;72.50;;;17.92;36.75;98281.75;5024155;28;20032;-71
2022/12/14 02:59:55;;;;;;;21.58;12.40;;;15.00;72.70;;;17.95;36.84;98279.13;5040537;28;20132;-71
2022/12/14 03:02:21;;;;;;;22.15;11.98;;;15.10;72.40;;;17.93;36.72;98275.91;5038837;28;20044;-71
2022/12/14 03:04:48;;;;;;;23.17;12.23;;;15.10;72.30;;;17.94;36.87;98280.28;5023974;28;20061;-71
2022/12/14 03:07:48;;;;;;;21.50;12.10;;;15.00;72.70;;;17.94;36.97;98277.53;5040397;28;20396;-71
2022/12/14 03:10:35;;;;;;;22.60;12.98;;;15.10;72.60;;;17.91;37.04;98271.91;5042110;28;20051;-71
2022/12/14 03:13:15;;;;;;;23.10;13.52;;;15.10;72.50;;;17.92;36.92;98260.59;5057807;28;20561;-72
2022/12/14 03:15:43;;;;;;;21.65;12.25;;;15.00;72.50;;;17.96;36.84;98274.44;5038086;28;20415;-72
2022/12/14 03:18:10;;;;;;;21.10;12.77;;;15.00;72.40;;;17.92;36.87;98271.56;5002315;28;20050;-72
2022/12/14 03:20:37;;;;;;;23.30;13.48;;;15.00;72.40;;;17.97;36.84;98274.13;5026515;28;20055;-72
2022/12/14 03:23:20;;;;;;;24.95;12.20;;;15.00;72.50;;;17.97;36.70;98279.59;5042320;28;20066;-72
2022/12/14 03:26:32;;;;;;;23.00;13.10;;;15.00;72.70;;;17.99;36.70;98276.53;5030909;28;20040;-72
2022/12/14 03:29:10;;;;;;;17.70;11.73;;;15.00;72.70;;;17.92;36.87;98271.56;4970622;28;20058;-72
2022/12/14 03:31:54;;;;;;;21.33;13.20;;;15.00;72.80;;;17.98;36.63;98274.91;4956376;28;20042;-72
2022/12/14 03:34:30;;;;;;;23.75;13.38;;;14.90;72.60;;;17.94;36.64;98272.03;5015090;28;20052;-72
2022/12/14 03:37:04;;;;;;;22.52;13.02;;;15.00;72.70;;;17.91;37.00;98280.94;5027646;28;20041;-72
2022/12/14 03:39:33;;;;;;;25.98;13.10;;;15.10;72.60;;;17.97;36.57;98281.53;5041696;28;20062;-72
2022/12/14 03:42:24;;;;;;;22.38;12.18;;;15.10;72.50;;;17.92;36.65;98270.78;4999704;28;20098;-73
2022/12/14 03:45:07;;;;;;;25.35;13.93;;;15.00;72.60;;;17.91;37.06;98272.72;5028907;28;20079;-72
2022/12/14 03:48:00;;;;;;;25.00;12.68;;;15.10;72.30;;;17.90;36.28;98273.03;5075844;28;20036;-72
2022/12/14 03:50:49;;;;;;;22.95;13.20;;;15.00;72.30;;;17.90;36.71;98262.06;5055166;28;20068;-72
2022/12/14 03:53:26;;;;;;;22.27;13.18;;;15.00;72.40;;;17.94;36.55;98261.06;5035716;28;20113;-72
2022/12/14 03:56:25;;;;;;;27.30;14.55;;;15.00;72.30;;;17.90;36.28;98257.38;5047171;28;20097;-72
2022/12/14 03:59:23;;;;;;;23.02;13.25;;;15.00;71.70;;;17.93;36.19;98259.44;5051620;28;20155;-72
2022/12/14 04:02:24;;;;;;;25.52;14.65;;;15.10;71.60;;;17.87;36.22;98263.53;5029147;28;20112;-72
2022/12/14 04:05:13;;;;;;;20.27;13.07;;;15.00;71.60;;;17.88;36.41;98256.91;5028476;28;20048;-72
2022/12/14 04:08:03;;;;;;;23.20;12.48;;;14.90;71.80;;;17.89;36.08;98250.28;5071571;28;20080;-72
2022/12/14 04:19:18;;;;;;;24.85;14.75;;;15.00;71.00;;;17.83;36.07;98254.34;5032286;28;20127;-72
2022/12/14 04:21:55;;;;;;;24.70;14.93;;;14.90;71.30;;;17.82;36.30;98243.75;5022541;28;20380;-72
2022/12/14 04:27:51;;;;;;;23.27;13.93;;;14.90;71.50;;;17.89;35.91;98236.56;5069931;28;20203;-72
2022/12/14 04:30:18;;;;;;;24.88;14.57;;;14.90;71.00;;;17.79;35.79;98236.94;5051917;28;20051;-72
2022/12/14 04:33:45;;;;;;;24.65;14.75;;;15.00;70.80;;;17.84;35.93;98231.28;5055385;28;20044;-72
2022/12/14 04:35:53;;;;;;;25.58;15.73;;;14.90;70.90;;;17.74;36.19;98232.47;5057526;28;20115;-72
2022/12/14 04:38:41;;;;;;;26.13;14.98;;;14.80;70.90;;;17.82;36.09;98230.81;5025792;28;20040;-72
2022/12/14 04:41:10;;;;;;;24.48;14.85;;;14.80;71.40;;;17.84;36.04;98230.50;5050524;28;20064;-71
2022/12/14 04:43:39;;;;;;;28.70;16.08;;;14.90;70.80;;;17.79;35.72;98226.81;5033507;28;20052;-71
2022/12/14 04:46:15;;;;;;;30.58;15.93;;;14.90;70.70;;;17.78;35.80;98227.09;5038616;28;20404;-72
2022/12/14 04:49:11;;;;;;;24.95;15.48;;;14.90;70.50;;;17.79;35.45;98224.06;5046028;28;20049;-72
2022/12/14 04:51:52;;;;;;;23.35;14.23;;;14.90;70.40;;;17.73;35.73;98221.81;5021537;28;20090;-72
2022/12/14 04:54:46;;;;;;;24.27;15.20;;;14.90;70.50;;;17.78;36.02;98227.09;5061534;28;20040;-72
2022/12/14 04:57:16;;;;;;;29.20;16.67;;;14.80;70.70;;;17.78;35.83;98216.13;5047428;28;20052;-72
2022/12/14 04:59:43;;;;;;;27.25;15.55;;;14.90;70.60;;;17.76;35.93;98207.47;5056671;28;20484;-72
2022/12/14 05:02:58;;;;;;;26.38;14.85;;;14.90;70.50;;;17.71;35.65;98208.44;5039743;28;20044;-72
2022/12/14 05:05:27;;;;;;;29.90;16.67;;;14.80;70.30;;;17.67;35.75;98213.00;5057098;28;20048;-71
2022/12/14 05:08:08;;;;;;;25.73;14.60;;;14.70;70.20;;;17.66;35.78;98199.63;5046761;28;20094;-72
2022/12/14 05:11:11;;;;;;;27.70;15.07;;;14.70;70.60;;;17.77;35.78;98203.56;5058417;28;20487;-72
2022/12/14 05:13:43;;;;;;;25.45;14.60;;;14.70;70.90;;;17.68;36.27;98189.09;5037855;28;20317;-72
2022/12/14 05:16:09;;;;;;;25.27;15.38;;;14.70;70.60;;;17.67;35.74;98193.78;5038794;28;20071;-72
2022/12/14 05:18:35;;;;;;;30.38;16.17;;;14.80;70.20;;;17.64;35.89;98188.97;5043913;28;20044;-72
2022/12/14 05:21:01;;;;;;;28.58;16.33;;;14.80;70.00;;;17.60;35.56;98189.97;5042272;28;20036;-72
2022/12/14 05:23:27;;;;;;;27.23;17.05;;;14.80;69.90;;;17.68;35.68;98189.94;5059145;28;20437;-72
2022/12/14 05:25:53;;;;;;;26.75;17.25;;;14.80;69.80;;;17.68;35.63;98184.44;5028474;28;20043;-72
2022/12/14 05:28:20;;;;;;;29.00;15.95;;;14.80;70.10;;;17.71;35.38;98177.50;5039869;28;20041;-72
2022/12/14 05:30:46;;;;;;;29.65;17.52;;;14.70;70.90;;;17.66;35.63;98180.44;5057572;28;20502;-72
2022/12/14 05:33:19;;;;;;;28.77;16.20;;;14.70;70.40;;;17.68;35.44;98175.38;5041219;28;20124;-72
2022/12/14 05:35:45;;;;;;;30.80;16.25;;;14.70;70.20;;;17.64;35.72;98178.00;5041477;28;20171;-72
2022/12/14 05:38:12;;;;;;;28.92;16.45;;;14.80;70.00;;;17.66;35.58;98183.97;5062071;28;20475;-72
2022/12/14 05:40:38;;;;;;;25.80;16.73;;;14.80;69.60;;;17.63;35.49;98175.59;5059503;28;20071;-72
2022/12/14 05:43:08;;;;;;;28.20;16.48;;;14.80;69.70;;;17.61;35.54;98177.91;5063982;28;20037;-72
2022/12/14 05:45:34;;;;;;;27.88;17.02;;;14.70;70.00;;;17.60;35.71;98181.75;5027855;28;20449;-72
2022/12/14 05:48:00;;;;;;;27.27;17.42;;;14.70;70.50;;;17.61;35.38;98172.41;5047935;28;20514;-72
2022/12/14 05:50:27;;;;;;;28.58;16.77;;;14.70;69.90;;;17.57;35.34;98178.53;5065961;28;20036;-72
2022/12/14 05:52:54;;;;;;;28.85;17.02;;;14.60;69.80;;;17.57;35.44;98175.78;5006061;28;20111;-72
2022/12/14 05:55:20;;;;;;;28.75;16.98;;;14.70;69.80;;;17.62;35.64;98174.00;5074810;28;20512;-72
2022/12/14 05:57:47;;;;;;;27.98;16.80;;;14.70;70.00;;;17.60;35.59;98179.00;5043970;28;20043;-72
2022/12/14 06:00:13;;;;;;;25.67;15.82;;;14.70;70.00;;;17.57;35.85;98178.53;5073249;28;20037;-72
2022/12/14 06:02:40;;;;;;;26.95;16.33;;;14.70;69.80;;;17.57;35.42;98181.28;5072746;28;20043;-72
2022/12/14 06:05:06;;;;;;;26.17;16.42;;;14.70;69.60;;;17.58;35.35;98176.63;5059021;28;20650;-73
2022/12/14 06:07:32;;;;;;;29.90;17.05;;;14.70;69.90;;;17.58;35.51;98182.91;5073378;28;20379;-73
2022/12/14 06:09:58;;;;;;;29.35;17.38;;;14.80;70.10;;;17.60;35.44;98179.81;5040342;28;20044;-72
2022/12/14 06:12:25;;;;;;;30.35;16.50;;;14.70;69.90;;;17.57;35.53;98183.22;5058565;28;20119;-72
2022/12/14 06:14:51;;;;;;;29.50;16.98;;;14.60;70.20;;;17.55;35.79;98180.00;5055434;28;20582;-72
2022/12/14 06:17:17;;;;;;;23.42;14.68;;;14.70;70.10;;;17.50;35.79;98180.22;5058973;28;20086;-73
2022/12/14 06:19:43;;;;;;;31.23;17.13;;;14.70;70.00;;;17.55;35.83;98175.34;5039929;28;20048;-72
2022/12/14 06:22:09;;;;;;;26.50;17.27;;;14.70;70.20;;;17.55;36.03;98180.00;5072132;28;20082;-72
2022/12/14 06:24:35;;;;;;;27.45;16.23;;;14.70;70.70;;;17.58;35.59;98173.88;5071578;28;20144;-71
2022/12/14 06:27:01;;;;;;;30.65;17.92;;;14.70;70.40;;;17.54;36.06;98168.25;5054306;28;20040;-71
2022/12/14 06:29:27;;;;;;;29.00;16.15;;;14.70;70.70;;;17.42;36.37;98168.19;5019759;28;20050;-71
2022/12/14 06:31:53;;;;;;;31.75;17.83;;;14.60;70.60;;;17.50;36.09;98169.25;5051351;28;20048;-71
2022/12/14 06:34:19;;;;;;;29.02;15.35;;;14.60;70.50;;;17.53;35.79;98165.84;5033773;28;20047;-71
2022/12/14 06:36:46;;;;;;;28.95;16.63;;;14.60;70.50;;;17.49;36.04;98165.72;5051947;28;20306;-71
2022/12/14 06:39:14;;;;;;;24.13;15.85;;;14.70;70.70;;;17.51;36.29;98154.41;5051640;28;20518;-71
2022/12/14 06:41:40;;;;;;;31.42;16.77;;;14.70;70.70;;;17.49;36.29;98159.44;5019573;28;20399;-71
2022/12/14 06:44:10;;;;;;;30.13;16.35;;;14.70;70.80;;;17.55;35.82;98167.13;5056928;28;20048;-72
2022/12/14 06:46:36;;;;;;;24.13;15.95;;;14.60;70.60;;;17.45;35.87;98167.50;5055557;28;20518;-71
2022/12/14 06:49:02;;;;;;;26.35;15.85;;;14.60;70.60;;;17.41;36.31;98161.09;5018218;28;20044;-71
2022/12/14 06:51:29;;;;;;;23.90;15.98;;;14.70;70.60;;;17.46;35.99;98157.34;5040200;28;20040;-71
2022/12/14 06:53:55;;;;;;;25.80;16.67;;;14.60;70.80;;;17.47;36.00;98167.19;5017650;28;20036;-71
2022/12/14 06:56:24;;;;;;;30.90;16.63;;;14.70;71.00;;;17.50;36.06;98159.09;5036482;28;20040;-71
2022/12/14 06:58:50;;;;;;;26.83;15.93;;;14.60;70.80;;;17.50;35.90;98167.34;5019651;28;20551;-71
2022/12/14 07:01:19;;;;;;;29.73;17.10;;;14.70;70.90;;;17.45;36.28;98172.19;5057238;28;20040;-71
2022/12/14 07:03:55;;;;;;;28.50;16.45;;;14.70;70.80;;;17.38;35.94;98167.25;5019549;28;20045;-71
2022/12/14 07:06:22;;;;;;;29.80;15.45;;;14.60;70.60;;;17.39;35.96;98166.09;5054216;28;20105;-71
2022/12/14 07:08:48;;;;;;;26.52;17.00;;;14.60;70.80;;;17.45;36.13;98166.72;5044730;28;20060;-71
2022/12/14 07:11:16;;;;;;;27.58;15.77;;;14.60;71.10;;;17.43;36.26;98156.09;5019635;28;20690;-71
2022/12/14 07:13:42;;;;;;;29.52;16.98;;;14.70;70.90;;;17.46;35.90;98160.91;5020243;28;20422;-71
2022/12/14 07:16:14;;;;;;;27.77;16.38;;;14.60;70.50;;;17.45;36.11;98153.00;5018095;28;20045;-71
2022/12/14 07:18:40;;;;;;;26.08;15.48;;;14.50;70.70;;;17.46;35.94;98152.69;5038584;28;20396;-71
2022/12/14 07:21:11;;;;;;;26.85;16.63;;;14.50;70.90;;;17.42;35.95;98138.03;5051290;28;20063;-71
2022/12/14 07:23:37;;;;;;;24.02;15.75;;;14.40;70.80;;;17.43;35.94;98145.13;5017375;28;20060;-71
2022/12/14 07:26:06;;;;;;;26.27;16.55;;;14.40;71.20;;;17.50;36.06;98137.16;5019192;28;20522;-72
2022/12/14 07:28:32;;;;;;;22.98;14.55;;;14.50;71.00;;;17.48;35.96;98146.88;5034830;28;20048;-72
2022/12/14 07:30:59;;;;;;;27.73;17.02;;;14.60;71.10;;;17.47;36.12;98143.28;5046586;28;20097;-72
2022/12/14 07:33:25;;;;;;;25.23;16.05;;;14.50;70.90;;;17.40;35.94;98140.28;5034207;28;20045;-72
2022/12/14 07:35:52;;;;;;;26.65;16.10;;;14.40;71.10;;;17.36;36.18;98131.94;5028714;28;20120;-72
2022/12/14 07:38:18;;;;;;;30.90;17.90;;;14.50;70.70;;;17.32;36.29;98128.25;5036473;28;20488;-72
2022/12/14 07:40:44;;;;;;;30.58;17.92;;;14.60;70.80;;;17.44;36.04;98138.50;5067700;28;20055;-72
2022/12/14 07:43:10;;;;;;;26.95;15.32;;;14.60;70.80;;;17.47;35.91;98126.84;5047961;28;20036;-72
2022/12/14 07:45:37;;;;;;;27.27;15.65;;;14.50;71.00;;;17.45;36.32;98137.34;5068066;28;20514;-72
2022/12/14 07:48:06;;;;;;;28.60;15.55;;;14.60;70.90;;;17.34;36.04;98136.16;5045121;28;20438;-72
2022/12/14 07:50:32;;;;;;;25.80;16.60;;;14.50;70.70;;;17.37;35.84;98140.97;5036846;28;20484;-72
2022/12/14 07:52:58;;;;;;;25.58;15.93;;;14.40;70.70;;;17.34;36.31;98139.69;5044258;28;20106;-72
2022/12/14 07:55:24;;;;;;;29.48;16.27;;;14.40;71.00;;;17.39;36.14;98138.69;5065489;28;20072;-72
2022/12/14 07:57:50;;;;;;;25.75;15.40;;;14.40;71.30;;;17.41;35.79;98136.44;5052308;28;20184;-72
2022/12/14 08:00:17;;;;;;;23.63;15.07;;;14.50;71.20;;;17.46;36.07;98128.00;5031350;28;20048;-72
2022/12/14 08:02:43;;;;;;;24.05;14.50;;;14.50;71.00;;;17.40;36.07;98128.53;5066731;28;20052;-72
2022/12/14 08:05:10;;;;;;;23.45;14.40;;;14.50;70.80;;;17.41;35.92;98125.47;5068776;28;20521;-72
2022/12/14 08:07:36;;;;;;;26.13;16.33;;;14.40;71.00;;;17.37;36.14;98127.25;5052575;28;20486;-72
2022/12/14 08:10:02;;;;;;;22.27;14.95;;;14.40;70.80;;;17.42;35.60;98132.53;5051539;28;20033;-71
2022/12/14 08:12:28;;;;;;;25.00;14.73;;;14.40;70.70;;;17.39;35.84;98127.72;5047313;28;20052;-72
2022/12/14 08:14:55;;;;;;;27.65;15.10;;;14.50;70.80;;;17.49;35.97;98115.56;5051768;28;20041;-72
2022/12/14 08:17:20;;;;;;;25.73;15.52;;;14.50;70.70;;;17.45;35.91;98120.09;5033915;28;20050;-72
2022/12/14 08:19:47;;;;;;;25.52;15.73;;;14.50;71.50;;;17.47;35.60;98113.13;5050852;28;20041;-72
2022/12/14 08:22:13;;;;;;;25.42;16.85;;;14.40;70.60;;;17.40;36.07;98112.06;5040769;28;20040;-72
2022/12/14 08:24:39;;;;;;;25.48;15.68;;;14.50;70.80;;;17.44;35.68;98107.53;5063534;28;20045;-72
2022/12/14 08:27:05;;;;;;;24.67;16.08;;;14.50;70.60;;;17.41;35.79;98100.78;5067370;28;20496;-72
2022/12/14 08:29:32;;;;;;;25.30;14.98;;;14.50;70.60;;;17.48;35.71;98098.31;5067547;28;20618;-72
2022/12/14 08:31:58;;;;;;;21.42;14.50;;;14.50;70.60;;;17.49;35.88;98097.16;5065445;28;20049;-72
2022/12/14 08:34:24;;;;;;;25.88;15.70;;;14.60;70.40;;;17.48;36.06;98092.81;5066284;28;20573;-72
2022/12/14 08:36:50;;;;;;;26.00;16.25;;;14.70;70.30;;;17.45;35.95;98096.22;5046575;28;20048;-72
2022/12/14 08:39:16;;;;;;;22.10;15.10;;;14.60;70.40;;;17.47;35.82;98093.94;5054392;28;20141;-72
2022/12/14 08:41:42;;;;;;;26.90;16.92;;;14.60;70.30;;;17.49;35.85;98099.91;5049349;28;20048;-72
2022/12/14 08:44:08;;;;;;;23.48;14.55;;;14.50;70.30;;;17.50;35.74;98090.56;5069825;28;20040;-72
2022/12/14 08:46:36;;;;;;;26.65;16.92;;;14.50;70.60;;;17.59;35.60;98098.69;5054233;28;20499;-72
2022/12/14 08:49:02;;;;;;;24.67;15.25;;;14.60;70.50;;;17.57;35.79;98090.78;5016666;28;20144;-72
2022/12/14 08:51:28;;;;;;;25.33;14.30;;;14.80;70.30;;;17.51;35.63;98086.66;5052848;28;20049;-72
2022/12/14 08:53:55;;;;;;;26.08;15.85;;;14.70;70.00;;;17.54;35.46;98085.19;5013377;28;20484;-72
2022/12/14 08:56:24;;;;;;;22.80;14.52;;;14.80;69.80;;;17.62;35.62;98094.47;5066480;28;20044;-72
2022/12/14 08:58:50;;;;;;;23.67;15.52;;;14.70;69.80;;;17.61;35.37;98088.19;5036766;28;20045;-72
2022/12/14 09:01:22;;;;;;;30.58;15.00;;;14.70;70.00;;;17.63;35.78;98090.59;5030552;28;20139;-72
2022/12/14 09:03:48;;;;;;;;;;;14.60;70.50;;;17.74;35.48;98080.81;5037372;28;20064;-72
2022/12/14 09:06:23;;;;;;;25.30;14.15;;;14.70;70.50;;;17.73;35.26;98084.66;5033203;28;19925;-72
2022/12/14 09:08:49;;;;;;;24.42;15.32;;;14.90;70.10;;;17.75;35.62;98080.44;5040577;28;20086;-72
2022/12/14 09:11:17;;;;;;;23.27;14.98;;;14.90;69.70;;;17.78;35.22;98070.75;5031340;28;20037;-72
2022/12/14 09:13:44;;;;;;;21.90;13.65;;;14.90;69.70;;;17.80;35.12;98071.25;5014663;28;20041;-72
2022/12/14 09:16:16;;;;;;;27.10;14.73;;;14.90;69.40;;;17.82;35.24;98070.91;5014421;28;20121;-72
2022/12/14 09:18:43;;;;;;;23.98;15.07;;;14.90;69.60;;;17.82;35.26;98062.69;5022220;28;20484;-72
2022/12/14 09:21:12;;;;;;;20.95;13.73;;;15.00;69.90;;;17.90;35.26;98054.34;5064222;28;20036;-72
2022/12/14 09:23:38;;;;;;;29.25;15.18;;;15.00;69.90;;;17.95;34.89;98059.63;5064113;28;20132;-72
2022/12/14 09:26:07;;;;;;;24.40;14.57;;;15.00;69.50;;;17.96;35.04;98053.00;5018770;28;20496;-72
2022/12/14 09:28:35;;;;;;;21.15;14.00;;;15.10;69.30;;;17.95;34.97;98043.16;5005984;28;20530;-72
2022/12/14 09:31:04;;;;;;;25.48;14.10;;;15.10;69.30;;;17.96;34.96;98052.19;5017679;28;20583;-72
2022/12/14 09:33:30;;;;;;;24.80;14.95;;;15.20;69.10;;;17.95;34.93;98047.84;5032666;28;20040;-72
2022/12/14 09:36:09;;;;;;;19.50;13.52;;;15.20;69.50;;;18.04;35.03;98053.22;5067173;28;20183;-72
2022/12/14 09:38:36;;;;;;;23.75;14.15;;;15.20;69.50;;;18.05;35.15;98052.09;5024936;28;20048;-72
2022/12/14 09:41:05;;;;;;;21.65;15.48;;;15.20;69.30;;;18.05;34.92;98052.88;5067955;28;20052;-72
2022/12/14 09:44:05;;;;;;;20.98;13.90;;;15.30;69.10;;;18.03;34.89;98052.41;5066563;28;20040;-72
2022/12/14 09:46:44;;;;;;;22.92;14.68;;;15.30;69.10;;;18.08;34.82;98057.69;4995708;28;20061;-72
2022/12/14 09:49:30;;;;;;;25.92;14.48;;;15.30;69.10;;;18.07;34.97;98047.06;5056069;28;20089;-72
2022/12/14 09:52:03;;;;;;;22.92;14.32;;;15.20;69.40;;;18.11;34.97;98037.78;5025490;28;20048;-72
2022/12/14 09:54:34;;;;;;;24.98;14.68;;;15.20;69.50;;;18.14;34.80;98036.31;5024249;28;20140;-72
2022/12/14 09:57:09;;;;;;;23.42;13.63;;;15.30;69.60;;;18.14;34.86;98033.56;5001254;28;20611;-72
2022/12/14 09:59:35;;;;;;;22.75;13.77;;;15.30;69.10;;;18.14;34.89;98025.31;5045274;28;20048;-72
2022/12/14 10:02:23;;;;;;;22.33;13.77;;;15.40;68.80;;;18.16;34.75;98020.31;5022927;28;20274;-72
2022/12/14 10:05:10;;;;;;;21.75;14.82;;;15.50;68.70;;;18.18;34.83;98029.78;5050225;28;20579;-72
2022/12/14 10:08:03;;;;;;;21.35;14.02;;;15.40;68.70;;;18.28;34.60;98025.78;5069226;28;20094;-72
2022/12/14 10:11:17;;;;;;;22.13;13.63;;;15.50;69.10;;;18.24;34.89;98013.88;5068310;28;20194;-72
2022/12/14 10:14:07;;;;;;;20.67;13.43;;;15.50;69.10;;;18.27;34.80;98009.66;5027426;28;20095;-72
2022/12/14 10:16:58;;;;;;;22.00;14.13;;;15.60;68.70;;;18.34;34.86;98023.63;5033745;28;20073;-72
2022/12/14 10:19:51;;;;;;;21.85;14.45;;;15.60;68.50;;;18.31;34.66;98027.84;5066734;28;20048;-72
2022/12/14 10:22:30;;;;;;;23.10;14.15;;;15.60;68.50;;;18.33;34.80;98016.53;5065198;28;20177;-72
2022/12/14 10:25:09;;;;;;;21.20;14.65;;;15.60;68.80;;;18.33;34.80;98022.03;5024831;28;20469;-72
2022/12/14 10:27:35;;;;;;;20.55;13.00;;;15.60;69.10;;;18.38;34.64;98019.06;5031644;28;20046;-72
2022/12/14 10:30:04;;;;;;;24.33;14.90;;;15.60;68.50;;;18.37;34.63;98015.50;5038782;28;20041;-72
2022/12/14 10:32:38;;;;;;;23.40;13.27;;;15.70;68.00;;;18.39;34.35;98013.22;5039076;28;20045;-72
2022/12/14 10:35:15;;;;;;;22.75;14.35;;;15.70;68.10;;;18.38;34.46;98014.34;5003094;28;20075;-72
2022/12/14 10:37:44;;;;;;;20.77;12.18;;;15.70;68.00;;;18.40;34.66;98011.28;5031412;28;20051;-72
2022/12/14 10:40:27;;;;;;;24.08;15.35;;;15.70;68.20;;;18.44;34.85;98006.69;5028929;28;20047;-72
2022/12/14 10:43:17;;;;;;;19.13;12.48;;;15.80;68.40;;;18.40;34.69;97994.81;5035924;28;20374;-72